Time;durP1;ratioP1;P1;durP2;ratioP2;P2;SDS_P1;SDS_P2;PMS_P1;PMS_P2;Temp;Humidity;BMP_temperature;BMP_pressure;BME280_temperature;BME280_humidity;BME280_pressure;Samples;Min_cycle;Max_cycle;Signal;HPM_P1;HPM_P2
2022/03/11 00:00:46;;;;;;;14.13;8.70;;;;;;;;;;5048739;28;20041;-62
2022/03/11 00:03:13;;;;;;;16.60;9.10;;;;;;;;;;5048936;28;20049;-62
2022/03/11 00:05:42;;;;;;;14.93;9.20;;;;;;;;;;5049022;28;20053;-62
2022/03/11 00:08:09;;;;;;;18.87;9.57;;;;;;;;;;5048381;28;20041;-62
2022/03/11 00:10:35;;;;;;;15.07;9.33;;;;;;;;;;5048043;28;20047;-62
2022/03/11 00:13:01;;;;;;;15.23;8.47;;;;;;;;;;5048668;28;20055;-62
2022/03/11 00:15:27;;;;;;;14.67;8.93;;;;;;;;;;5049216;28;20045;-62
2022/03/11 00:17:53;;;;;;;13.57;8.17;;;;;;;;;;5052636;28;20128;-61
2022/03/11 00:20:20;;;;;;;15.80;9.33;;;;;;;;;;5052630;28;20087;-62
2022/03/11 00:22:50;;;;;;;14.83;8.90;;;;;;;;;;5052926;28;20072;-62
2022/03/11 00:25:16;;;;;;;15.37;8.87;;;;;;;;;;5051578;28;20047;-62
2022/03/11 00:27:43;;;;;;;16.03;8.80;;;;;;;;;;5052432;28;20530;-62
2022/03/11 00:30:10;;;;;;;14.10;8.27;;;;;;;;;;5052552;28;20514;-62
2022/03/11 00:32:36;;;;;;;15.37;8.57;;;;;;;;;;5051885;28;20091;-62
2022/03/11 00:35:02;;;;;;;16.43;9.00;;;;;;;;;;5052721;28;20640;-62
2022/03/11 00:37:29;;;;;;;16.77;10.00;;;;;;;;;;5052562;28;20462;-62
2022/03/11 00:39:55;;;;;;;19.43;9.30;;;;;;;;;;5051413;28;20048;-62
2022/03/11 00:42:21;;;;;;;15.07;9.00;;;;;;;;;;5052033;28;20052;-62
2022/03/11 00:44:47;;;;;;;14.20;8.70;;;;;;;;;;5052479;28;20053;-63
2022/03/11 00:47:13;;;;;;;15.03;9.30;;;;;;;;;;5052402;28;20049;-62
2022/03/11 00:49:39;;;;;;;12.20;8.70;;;;;;;;;;5052351;28;20037;-62
2022/03/11 00:52:05;;;;;;;17.27;9.30;;;;;;;;;;5052269;28;20044;-62
2022/03/11 00:54:31;;;;;;;15.90;9.60;;;;;;;;;;5052256;28;20049;-62
2022/03/11 00:56:57;;;;;;;16.73;9.87;;;;;;;;;;5051880;28;20450;-62
2022/03/11 00:59:23;;;;;;;15.63;9.13;;;;;;;;;;5051925;28;20080;-62
2022/03/11 01:01:50;;;;;;;13.73;8.73;;;;;;;;;;5037670;28;20045;-62
2022/03/11 01:04:16;;;;;;;15.73;8.57;;;;;;;;;;5031977;28;20049;-62
2022/03/11 01:06:42;;;;;;;14.80;8.53;;;;;;;;;;5032003;28;20503;-62
2022/03/11 01:09:08;;;;;;;15.20;9.40;;;;;;;;;;5031622;28;20044;-62
2022/03/11 01:11:34;;;;;;;15.30;8.90;;;;;;;;;;5032188;28;20431;-62
2022/03/11 01:14:00;;;;;;;15.37;9.33;;;;;;;;;;5031774;28;20050;-62
2022/03/11 01:16:27;;;;;;;14.73;9.00;;;;;;;;;;5032441;28;20049;-62
2022/03/11 01:18:53;;;;;;;21.37;10.70;;;;;;;;;;5032188;28;20056;-62
2022/03/11 01:21:19;;;;;;;18.40;9.20;;;;;;;;;;5034570;28;20054;-63
2022/03/11 01:23:45;;;;;;;17.03;10.23;;;;;;;;;;5051148;28;20045;-62
2022/03/11 01:26:12;;;;;;;18.27;9.60;;;;;;;;;;5051434;28;20056;-62
2022/03/11 01:28:42;;;;;;;13.57;8.77;;;;;;;;;;5051721;28;20049;-62
2022/03/11 01:31:11;;;;;;;18.33;9.40;;;;;;;;;;5051166;28;20313;-62
2022/03/11 01:33:37;;;;;;;14.00;9.07;;;;;;;;;;5051136;28;20460;-62
2022/03/11 01:36:03;;;;;;;18.93;9.70;;;;;;;;;;5051112;28;20040;-62
2022/03/11 01:38:30;;;;;;;15.53;9.93;;;;;;;;;;5051235;28;20691;-62
2022/03/11 01:40:56;;;;;;;16.70;10.97;;;;;;;;;;5051532;28;20132;-62
2022/03/11 01:43:22;;;;;;;19.93;10.03;;;;;;;;;;5050251;28;20053;-62
2022/03/11 01:45:48;;;;;;;17.20;9.93;;;;;;;;;;5051099;28;20048;-62
2022/03/11 01:48:14;;;;;;;18.17;10.50;;;;;;;;;;5051272;28;20052;-62
2022/03/11 01:50:42;;;;;;;18.27;10.60;;;;;;;;;;5049689;28;20506;-62
2022/03/11 01:53:08;;;;;;;18.67;9.93;;;;;;;;;;5050859;28;20152;-62
2022/03/11 01:55:35;;;;;;;16.60;10.37;;;;;;;;;;5051393;28;20037;-62
2022/03/11 01:58:02;;;;;;;16.63;10.57;;;;;;;;;;5050729;28;20037;-61
2022/03/11 02:00:28;;;;;;;16.23;10.50;;;;;;;;;;5051182;28;20055;-62
2022/03/11 02:02:54;;;;;;;15.73;10.73;;;;;;;;;;5050718;28;20044;-62
2022/03/11 02:05:20;;;;;;;23.10;10.00;;;;;;;;;;5050674;28;20053;-62
2022/03/11 02:07:47;;;;;;;18.37;10.30;;;;;;;;;;5050873;28;20049;-62
2022/03/11 02:10:14;;;;;;;17.97;9.60;;;;;;;;;;5048832;28;20056;-62
2022/03/11 02:12:40;;;;;;;21.07;10.10;;;;;;;;;;5031368;28;20041;-62
2022/03/11 02:15:06;;;;;;;20.13;10.33;;;;;;;;;;5031161;28;20049;-62
2022/03/11 02:17:33;;;;;;;17.03;9.73;;;;;;;;;;5050535;28;20041;-62
2022/03/11 02:19:59;;;;;;;19.63;9.37;;;;;;;;;;5050877;28;20412;-62
2022/03/11 02:22:25;;;;;;;14.97;9.47;;;;;;;;;;5050181;28;20102;-62
2022/03/11 02:24:52;;;;;;;19.30;10.23;;;;;;;;;;5050636;28;20045;-62
2022/03/11 02:27:18;;;;;;;16.30;10.03;;;;;;;;;;5050374;28;20308;-62
2022/03/11 02:29:44;;;;;;;13.50;9.03;;;;;;;;;;5048268;28;20063;-62
2022/03/11 02:32:10;;;;;;;14.90;8.53;;;;;;;;;;5030702;28;20053;-62
2022/03/11 02:34:38;;;;;;;16.53;9.10;;;;;;;;;;5029144;28;20508;-62
2022/03/11 02:37:04;;;;;;;14.97;9.07;;;;;;;;;;5030589;28;20049;-62
2022/03/11 02:39:30;;;;;;;15.23;9.40;;;;;;;;;;5029900;28;20072;-62
2022/03/11 02:41:57;;;;;;;16.17;9.73;;;;;;;;;;5030712;28;20073;-62
2022/03/11 02:44:24;;;;;;;18.40;10.43;;;;;;;;;;5037556;28;20049;-62
2022/03/11 02:46:51;;;;;;;17.57;9.80;;;;;;;;;;5039444;28;20056;-62
2022/03/11 02:49:17;;;;;;;17.93;10.60;;;;;;;;;;5039022;28;20037;-62
2022/03/11 02:51:43;;;;;;;18.70;9.37;;;;;;;;;;5038602;28;20042;-62
2022/03/11 02:54:09;;;;;;;14.13;8.90;;;;;;;;;;5037714;28;20490;-62
2022/03/11 02:56:35;;;;;;;17.90;10.30;;;;;;;;;;5037651;28;20120;-62
2022/03/11 02:59:01;;;;;;;18.77;9.77;;;;;;;;;;5040257;28;20045;-62
2022/03/11 03:01:27;;;;;;;17.67;9.60;;;;;;;;;;5038095;28;20522;-62
2022/03/11 03:03:53;;;;;;;15.47;9.63;;;;;;;;;;5040058;28;20082;-62
2022/03/11 03:06:19;;;;;;;16.77;9.43;;;;;;;;;;5037874;28;20041;-61
2022/03/11 03:08:45;;;;;;;19.30;10.27;;;;;;;;;;5038173;28;20041;-62
2022/03/11 03:11:11;;;;;;;18.40;11.37;;;;;;;;;;5037236;28;20099;-62
2022/03/11 03:13:37;;;;;;;18.77;10.73;;;;;;;;;;5037630;28;20045;-62
2022/03/11 03:16:03;;;;;;;16.67;10.33;;;;;;;;;;5038699;28;20045;-62
2022/03/11 03:18:30;;;;;;;19.07;10.50;;;;;;;;;;5039361;28;20099;-62
2022/03/11 03:20:56;;;;;;;22.70;12.07;;;;;;;;;;5039470;28;20521;-62
2022/03/11 03:23:25;;;;;;;17.87;10.00;;;;;;;;;;5037879;28;20107;-62
2022/03/11 03:25:51;;;;;;;19.03;10.77;;;;;;;;;;5036834;28;20197;-62
2022/03/11 03:28:17;;;;;;;16.07;10.67;;;;;;;;;;5036823;28;20115;-61
2022/03/11 03:30:43;;;;;;;19.60;10.87;;;;;;;;;;5039444;28;20407;-62
2022/03/11 03:33:09;;;;;;;19.60;10.97;;;;;;;;;;5037303;28;20037;-62
2022/03/11 03:35:35;;;;;;;17.07;11.67;;;;;;;;;;5039461;28;20113;-62
2022/03/11 03:38:01;;;;;;;19.90;11.07;;;;;;;;;;5037725;28;20511;-62
2022/03/11 03:40:27;;;;;;;21.73;10.17;;;;;;;;;;5037468;28;20083;-62
2022/03/11 03:42:53;;;;;;;18.63;10.23;;;;;;;;;;5036986;28;20064;-61
2022/03/11 03:45:19;;;;;;;21.00;12.07;;;;;;;;;;5039150;28;20045;-62
2022/03/11 03:47:45;;;;;;;20.87;12.57;;;;;;;;;;5037421;28;20099;-62
2022/03/11 03:50:11;;;;;;;19.07;11.37;;;;;;;;;;5035137;28;20076;-62
2022/03/11 03:52:38;;;;;;;19.40;10.90;;;;;;;;;;5039497;28;20080;-62
2022/03/11 03:55:04;;;;;;;19.33;12.27;;;;;;;;;;5039326;28;20045;-62
2022/03/11 03:57:31;;;;;;;21.50;12.80;;;;;;;;;;5038811;28;20517;-62
2022/03/11 03:59:57;;;;;;;19.20;11.20;;;;;;;;;;5043138;28;20350;-62
2022/03/11 04:02:23;;;;;;;19.60;11.07;;;;;;;;;;5040436;28;20160;-62
2022/03/11 04:04:50;;;;;;;21.27;12.00;;;;;;;;;;5037260;28;20958;-62
2022/03/11 04:07:16;;;;;;;23.97;13.03;;;;;;;;;;5037447;28;20495;-62
2022/03/11 04:09:42;;;;;;;28.27;13.23;;;;;;;;;;5038550;28;20056;-62
2022/03/11 04:12:09;;;;;;;21.80;12.17;;;;;;;;;;5036388;28;20041;-62
2022/03/11 04:14:35;;;;;;;17.73;11.20;;;;;;;;;;5037588;28;20557;-61
2022/03/11 04:17:01;;;;;;;22.13;12.93;;;;;;;;;;5037813;28;20128;-62
2022/03/11 04:19:27;;;;;;;22.30;12.07;;;;;;;;;;5038688;28;20041;-62
2022/03/11 04:21:53;;;;;;;19.57;13.27;;;;;;;;;;5037187;28;20454;-62
2022/03/11 04:24:21;;;;;;;23.40;12.37;;;;;;;;;;5036703;28;20049;-62
2022/03/11 04:26:47;;;;;;;19.97;12.77;;;;;;;;;;5047829;28;20111;-62
2022/03/11 04:29:13;;;;;;;23.43;12.53;;;;;;;;;;5048054;28;20045;-61
2022/03/11 04:31:40;;;;;;;20.27;13.10;;;;;;;;;;5048718;28;20483;-62
2022/03/11 04:34:06;;;;;;;26.50;12.23;;;;;;;;;;5044138;28;20084;-62
2022/03/11 04:36:38;;;;;;;21.87;12.93;;;;;;;;;;5035912;28;20049;-62
2022/03/11 04:39:05;;;;;;;22.77;12.57;;;;;;;;;;5027784;28;20045;-62
2022/03/11 04:41:31;;;;;;;22.37;12.37;;;;;;;;;;5028252;28;20053;-62
2022/03/11 04:43:57;;;;;;;22.37;13.00;;;;;;;;;;5028465;28;20046;-62
2022/03/11 04:46:24;;;;;;;23.37;12.83;;;;;;;;;;5028284;28;20054;-62
2022/03/11 04:48:50;;;;;;;22.97;12.80;;;;;;;;;;5026937;28;20046;-62
2022/03/11 04:51:16;;;;;;;21.57;12.50;;;;;;;;;;5037887;28;20045;-62
2022/03/11 04:53:43;;;;;;;22.43;14.67;;;;;;;;;;5046523;28;20480;-61
2022/03/11 04:56:09;;;;;;;24.53;14.67;;;;;;;;;;5047730;28;20394;-62
2022/03/11 04:58:35;;;;;;;27.87;14.60;;;;;;;;;;5047638;28;20048;-62
2022/03/11 05:01:01;;;;;;;22.03;13.63;;;;;;;;;;5047983;28;20072;-62
2022/03/11 05:03:27;;;;;;;23.70;14.63;;;;;;;;;;5051685;28;20040;-62
2022/03/11 05:05:53;;;;;;;23.73;13.33;;;;;;;;;;5051604;28;20495;-62
2022/03/11 05:08:19;;;;;;;24.07;13.47;;;;;;;;;;5050872;28;20049;-61
2022/03/11 05:10:45;;;;;;;23.03;13.57;;;;;;;;;;5051554;28;20495;-62
2022/03/11 05:13:11;;;;;;;27.57;14.93;;;;;;;;;;5051755;28;20107;-62
2022/03/11 05:15:38;;;;;;;23.00;13.63;;;;;;;;;;5050545;28;20055;-62
2022/03/11 05:18:05;;;;;;;21.07;13.43;;;;;;;;;;5051425;28;20114;-62
2022/03/11 05:20:31;;;;;;;26.97;15.40;;;;;;;;;;5051459;28;20045;-62
2022/03/11 05:22:57;;;;;;;25.23;14.27;;;;;;;;;;5051152;28;20494;-61
2022/03/11 05:25:23;;;;;;;29.77;14.80;;;;;;;;;;5051304;28;20425;-62
2022/03/11 05:27:49;;;;;;;27.53;15.13;;;;;;;;;;5050870;28;20048;-62
2022/03/11 05:30:15;;;;;;;27.10;14.87;;;;;;;;;;5050404;28;20050;-62
2022/03/11 05:32:46;;;;;;;28.17;15.97;;;;;;;;;;5050996;28;20057;-62
2022/03/11 05:35:12;;;;;;;23.23;13.60;;;;;;;;;;5051259;28;20094;-62
2022/03/11 05:37:39;;;;;;;24.23;14.77;;;;;;;;;;5050835;28;20090;-62
2022/03/11 05:40:05;;;;;;;30.93;16.47;;;;;;;;;;5050993;28;20045;-62
2022/03/11 05:42:31;;;;;;;24.43;14.07;;;;;;;;;;5050887;28;20053;-62
2022/03/11 05:44:57;;;;;;;23.60;13.90;;;;;;;;;;5050784;28;20242;-61
2022/03/11 05:47:24;;;;;;;28.00;14.13;;;;;;;;;;5050867;28;20458;-62
2022/03/11 05:49:50;;;;;;;27.50;15.03;;;;;;;;;;5050510;28;20041;-62
2022/03/11 05:52:16;;;;;;;30.23;15.63;;;;;;;;;;5050906;28;20101;-62
2022/03/11 05:54:42;;;;;;;27.93;16.60;;;;;;;;;;5050872;28;20491;-62
2022/03/11 05:57:08;;;;;;;28.73;15.10;;;;;;;;;;5050496;28;20103;-62
2022/03/11 05:59:34;;;;;;;26.60;14.93;;;;;;;;;;5050759;28;20061;-62
2022/03/11 06:02:01;;;;;;;31.00;16.27;;;;;;;;;;5050525;28;20302;-61
2022/03/11 06:04:27;;;;;;;29.20;16.63;;;;;;;;;;5049816;28;20327;-62
2022/03/11 06:06:53;;;;;;;31.20;16.20;;;;;;;;;;5049930;28;20049;-62
2022/03/11 06:09:19;;;;;;;25.57;16.37;;;;;;;;;;5050104;28;20404;-61
2022/03/11 06:11:45;;;;;;;27.87;17.53;;;;;;;;;;5050196;28;20533;-62
2022/03/11 06:14:11;;;;;;;29.80;16.83;;;;;;;;;;5048968;28;20287;-62
2022/03/11 06:16:37;;;;;;;34.57;16.70;;;;;;;;;;5049473;28;20411;-61
2022/03/11 06:19:03;;;;;;;30.63;16.90;;;;;;;;;;5050125;28;20041;-61
2022/03/11 06:21:29;;;;;;;32.10;17.83;;;;;;;;;;5049471;28;20048;-61
2022/03/11 06:23:57;;;;;;;31.83;17.63;;;;;;;;;;5050056;28;20051;-61
2022/03/11 06:26:23;;;;;;;29.00;16.40;;;;;;;;;;5049576;28;20415;-61
2022/03/11 06:28:50;;;;;;;28.23;16.97;;;;;;;;;;5048924;28;20087;-61
2022/03/11 06:31:16;;;;;;;30.67;17.87;;;;;;;;;;5049085;28;20092;-61
2022/03/11 06:33:42;;;;;;;29.13;16.17;;;;;;;;;;5050343;28;20095;-61
2022/03/11 06:36:08;;;;;;;27.67;16.07;;;;;;;;;;5048457;28;20044;-61
2022/03/11 06:38:34;;;;;;;29.87;17.60;;;;;;;;;;5050110;28;20102;-61
2022/03/11 06:41:00;;;;;;;32.37;16.27;;;;;;;;;;5049092;28;20049;-61
2022/03/11 06:43:26;;;;;;;27.10;15.93;;;;;;;;;;5047978;28;20463;-61
2022/03/11 06:45:52;;;;;;;33.10;18.60;;;;;;;;;;5048977;28;20048;-61
2022/03/11 06:48:19;;;;;;;30.90;18.83;;;;;;;;;;5049182;28;20422;-61
2022/03/11 06:50:45;;;;;;;31.37;16.23;;;;;;;;;;5049481;28;20048;-62
2022/03/11 06:53:11;;;;;;;31.47;16.57;;;;;;;;;;5049031;28;20041;-61
2022/03/11 06:55:37;;;;;;;30.57;17.70;;;;;;;;;;5049171;28;20049;-61
2022/03/11 06:58:04;;;;;;;26.23;16.03;;;;;;;;;;5049284;28;20061;-61
2022/03/11 07:00:30;;;;;;;26.87;17.27;;;;;;;;;;5049079;28;20056;-61
2022/03/11 07:02:56;;;;;;;28.50;17.10;;;;;;;;;;5049446;28;20049;-61
2022/03/11 07:05:22;;;;;;;26.27;15.67;;;;;;;;;;5048714;28;20064;-62
2022/03/11 07:07:48;;;;;;;27.87;16.93;;;;;;;;;;5049311;28;20059;-62
2022/03/11 07:10:16;;;;;;;30.43;17.20;;;;;;;;;;5049266;28;20060;-62
2022/03/11 07:12:42;;;;;;;26.87;16.63;;;;;;;;;;5049209;28;20104;-61
2022/03/11 07:15:09;;;;;;;30.23;18.63;;;;;;;;;;5048429;28;20045;-61
2022/03/11 07:17:35;;;;;;;30.63;17.10;;;;;;;;;;5049248;28;20049;-62
2022/03/11 07:20:03;;;;;;;27.47;16.60;;;;;;;;;;5048705;28;20041;-62
2022/03/11 07:22:31;;;;;;;30.10;18.07;;;;;;;;;;5048951;28;20427;-62
2022/03/11 07:24:58;;;;;;;27.83;16.40;;;;;;;;;;5048759;28;20411;-62
2022/03/11 07:27:24;;;;;;;26.30;17.03;;;;;;;;;;5048448;28;20048;-62
2022/03/11 07:29:51;;;;;;;26.17;16.87;;;;;;;;;;5048593;28;20132;-62
2022/03/11 07:32:17;;;;;;;30.57;16.10;;;;;;;;;;5048567;28;20063;-62
2022/03/11 07:34:43;;;;;;;41.73;19.00;;;;;;;;;;5048731;28;20061;-62
2022/03/11 07:37:13;;;;;;;26.50;16.00;;;;;;;;;;5047858;28;20723;-62
2022/03/11 07:39:43;;;;;;;26.77;16.63;;;;;;;;;;5047626;28;20459;-62
2022/03/11 07:42:09;;;;;;;27.73;16.53;;;;;;;;;;5048617;28;20082;-62
2022/03/11 07:44:35;;;;;;;32.20;16.57;;;;;;;;;;5048636;28;20052;-62
2022/03/11 07:47:01;;;;;;;30.87;17.03;;;;;;;;;;5048279;28;20098;-62
2022/03/11 07:49:28;;;;;;;27.37;16.13;;;;;;;;;;5047922;28;20053;-62
2022/03/11 07:51:54;;;;;;;22.83;15.27;;;;;;;;;;5047179;28;20049;-62
2022/03/11 07:54:20;;;;;;;28.27;17.10;;;;;;;;;;5048083;28;20049;-62
2022/03/11 07:56:47;;;;;;;29.33;17.17;;;;;;;;;;5048127;28;20124;-62
2022/03/11 07:59:13;;;;;;;30.27;16.73;;;;;;;;;;5048195;28;20045;-62
2022/03/11 08:01:39;;;;;;;26.67;17.27;;;;;;;;;;5048280;28;20106;-62
2022/03/11 08:04:05;;;;;;;29.67;16.83;;;;;;;;;;5048408;28;20041;-62
2022/03/11 08:06:31;;;;;;;23.60;16.60;;;;;;;;;;5048290;28;20495;-62
2022/03/11 08:08:57;;;;;;;28.40;18.00;;;;;;;;;;5048150;28;20052;-62
2022/03/11 08:11:24;;;;;;;26.67;17.03;;;;;;;;;;5047795;28;20053;-62
2022/03/11 08:13:50;;;;;;;29.60;16.23;;;;;;;;;;5048331;28;20106;-62
2022/03/11 08:16:16;;;;;;;23.53;15.17;;;;;;;;;;5047937;28;20041;-62
2022/03/11 08:18:43;;;;;;;26.30;15.77;;;;;;;;;;5048223;28;20056;-62
2022/03/11 08:21:11;;;;;;;25.03;16.30;;;;;;;;;;5046599;28;20487;-62
2022/03/11 08:23:39;;;;;;;27.77;16.50;;;;;;;;;;5047995;28;20527;-62
2022/03/11 08:26:05;;;;;;;26.20;16.20;;;;;;;;;;5048082;28;20594;-62
2022/03/11 08:28:31;;;;;;;28.47;16.13;;;;;;;;;;5048171;28;20045;-62
2022/03/11 08:30:57;;;;;;;25.63;15.83;;;;;;;;;;5047587;28;20049;-62
2022/03/11 08:33:24;;;;;;;24.57;15.93;;;;;;;;;;5047983;28;20053;-62
2022/03/11 08:35:51;;;;;;;22.97;14.50;;;;;;;;;;5048071;28;20056;-62
2022/03/11 08:38:17;;;;;;;27.00;16.83;;;;;;;;;;5051555;28;20067;-62
2022/03/11 08:40:44;;;;;;;27.50;15.63;;;;;;;;;;5052135;28;20079;-62
2022/03/11 08:43:10;;;;;;;25.73;15.43;;;;;;;;;;5051185;28;20381;-62
2022/03/11 08:45:37;;;;;;;24.63;16.07;;;;;;;;;;5052029;28;20052;-62
2022/03/11 08:48:03;;;;;;;30.10;16.30;;;;;;;;;;5050676;28;20045;-62
2022/03/11 08:50:29;;;;;;;26.03;16.40;;;;;;;;;;5051499;28;20045;-62
2022/03/11 08:52:55;;;;;;;27.53;17.17;;;;;;;;;;5051345;28;20049;-62
2022/03/11 08:55:21;;;;;;;25.23;16.90;;;;;;;;;;5051582;28;20491;-62
2022/03/11 08:57:51;;;;;;;26.13;17.33;;;;;;;;;;5051490;28;20045;-62
2022/03/11 09:00:19;;;;;;;29.70;17.13;;;;;;;;;;5051321;28;20041;-62
2022/03/11 09:02:45;;;;;;;26.57;16.20;;;;;;;;;;5051459;28;20045;-62
2022/03/11 09:05:11;;;;;;;25.23;15.97;;;;;;;;;;5051345;28;20135;-62
2022/03/11 09:07:37;;;;;;;24.50;15.63;;;;;;;;;;5051433;28;20491;-63
2022/03/11 09:10:04;;;;;;;24.13;15.43;;;;;;;;;;5050899;28;20119;-62
2022/03/11 09:12:30;;;;;;;24.80;15.27;;;;;;;;;;5051429;28;20045;-63
2022/03/11 09:14:57;;;;;;;22.00;14.80;;;;;;;;;;5051581;28;20521;-62
2022/03/11 09:17:23;;;;;;;21.53;15.63;;;;;;;;;;5050537;28;20406;-62
2022/03/11 09:19:49;;;;;;;28.97;16.30;;;;;;;;;;5051035;28;20571;-62
2022/03/11 09:22:17;;;;;;;24.23;14.93;;;;;;;;;;5051130;28;20132;-62
2022/03/11 09:24:44;;;;;;;22.43;14.43;;;;;;;;;;5050956;28;20053;-63
2022/03/11 09:27:11;;;;;;;22.13;14.90;;;;;;;;;;5050621;28;20084;-62
2022/03/11 09:29:38;;;;;;;22.33;14.83;;;;;;;;;;5051065;28;20041;-62
2022/03/11 09:32:04;;;;;;;21.93;14.27;;;;;;;;;;5050759;28;20059;-62
2022/03/11 09:34:31;;;;;;;21.60;14.97;;;;;;;;;;5051075;28;20426;-63
2022/03/11 09:36:57;;;;;;;22.30;14.60;;;;;;;;;;5050426;28;20110;-62
2022/03/11 09:39:24;;;;;;;21.53;14.80;;;;;;;;;;5050670;28;20556;-63
2022/03/11 09:41:50;;;;;;;21.97;14.97;;;;;;;;;;5050775;28;20040;-62
2022/03/11 09:44:17;;;;;;;22.20;15.37;;;;;;;;;;5050662;28;20052;-62
2022/03/11 09:46:43;;;;;;;26.47;15.57;;;;;;;;;;5050301;28;20045;-62
2022/03/11 09:49:12;;;;;;;22.37;15.40;;;;;;;;;;5049199;28;20045;-63
2022/03/11 09:51:40;;;;;;;22.30;15.77;;;;;;;;;;5050559;28;20732;-62
2022/03/11 09:54:06;;;;;;;22.30;15.40;;;;;;;;;;5049496;28;20288;-62
2022/03/11 09:56:35;;;;;;;24.37;14.53;;;;;;;;;;5050208;28;20048;-63
2022/03/11 09:59:01;;;;;;;23.43;13.97;;;;;;;;;;5050287;28;20049;-62
2022/03/11 10:01:27;;;;;;;21.37;14.53;;;;;;;;;;5048764;28;20044;-63
2022/03/11 10:03:53;;;;;;;21.90;14.60;;;;;;;;;;5030681;28;20041;-63
2022/03/11 10:06:38;;;;;;;22.33;14.07;;;;;;;;;;5030361;28;20053;-62
2022/03/11 10:09:04;;;;;;;20.47;13.77;;;;;;;;;;5029740;28;20488;-63
2022/03/11 10:11:30;;;;;;;21.20;13.83;;;;;;;;;;5030577;28;20049;-62
2022/03/11 10:14:08;;;;;;;21.50;14.17;;;;;;;;;;5029158;28;20476;-62
2022/03/11 10:16:34;;;;;;;19.60;12.60;;;;;;;;;;5030220;28;20041;-63
2022/03/11 10:19:04;;;;;;;19.70;14.00;;;;;;;;;;5029522;28;20045;-63
2022/03/11 10:21:39;;;;;;;19.93;13.90;;;;;;;;;;5030200;28;20041;-62
2022/03/11 10:24:06;;;;;;;24.23;13.40;;;;;;;;;;5030007;28;20081;-63
2022/03/11 10:26:35;;;;;;;19.40;13.07;;;;;;;;;;5029938;28;20045;-63
2022/03/11 10:29:02;;;;;;;23.73;15.03;;;;;;;;;;5029710;28;20064;-63
2022/03/11 10:31:34;;;;;;;20.23;14.23;;;;;;;;;;5029923;28;20051;-62
2022/03/11 10:34:15;;;;;;;19.58;13.32;;;;;;;;;;5029239;28;20088;-62
2022/03/11 10:36:52;;;;;;;19.27;13.23;;;;;;;;;;5029696;28;20056;-63
2022/03/11 10:39:20;;;;;;;19.33;14.10;;;;;;;;;;5029712;28;20131;-63
2022/03/11 10:41:49;;;;;;;19.27;13.80;;;;;;;;;;5029554;28;20056;-63
2022/03/11 10:44:17;;;;;;;17.63;13.20;;;;;;;;;;5029769;28;20045;-63
2022/03/11 10:46:43;;;;;;;21.53;14.23;;;;;;;;;;5029015;28;20085;-63
2022/03/11 10:49:09;;;;;;;21.03;15.40;;;;;;;;;;5029842;28;20045;-63
2022/03/11 10:51:38;;;;;;;20.37;14.43;;;;;;;;;;5029624;28;21117;-63
2022/03/11 10:54:10;;;;;;;20.77;14.47;;;;;;;;;;5029193;28;20045;-63
2022/03/11 10:56:40;;;;;;;19.70;14.52;;;;;;;;;;5029628;28;20124;-63
2022/03/11 10:59:07;;;;;;;21.07;14.23;;;;;;;;;;5028475;28;20045;-63
2022/03/11 11:01:43;;;;;;;22.97;15.13;;;;;;;;;;5032416;28;20049;-63
2022/03/11 11:04:10;;;;;;;24.40;15.50;;;;;;;;;;5049356;28;20107;-63
2022/03/11 11:06:36;;;;;;;21.70;15.30;;;;;;;;;;5049391;28;20049;-63
2022/03/11 11:09:03;;;;;;;21.23;15.23;;;;;;;;;;5049319;28;20048;-63
2022/03/11 11:11:29;;;;;;;21.93;15.03;;;;;;;;;;5048622;28;20048;-63
2022/03/11 11:13:55;;;;;;;21.87;15.67;;;;;;;;;;5049117;28;20045;-63
2022/03/11 11:16:27;;;;;;;20.00;14.40;;;;;;;;;;5048924;28;20076;-63
2022/03/11 11:18:55;;;;;;;23.53;16.07;;;;;;;;;;5048466;28;20056;-63
2022/03/11 11:21:24;;;;;;;21.37;15.20;;;;;;;;;;5048838;28;20072;-63
2022/03/11 11:23:51;;;;;;;21.33;15.40;;;;;;;;;;5048790;28;20085;-63
2022/03/11 11:26:18;;;;;;;22.87;15.70;;;;;;;;;;5048250;28;20080;-63
2022/03/11 11:28:44;;;;;;;20.27;15.33;;;;;;;;;;5048482;28;20037;-63
2022/03/11 11:31:10;;;;;;;21.63;16.10;;;;;;;;;;5048686;28;20068;-63
2022/03/11 11:33:36;;;;;;;21.43;15.03;;;;;;;;;;5048720;28;20090;-63
2022/03/11 11:36:02;;;;;;;18.07;14.10;;;;;;;;;;5047889;28;20045;-63
2022/03/11 11:38:37;;;;;;;23.40;14.70;;;;;;;;;;5048671;28;20080;-63
2022/03/11 11:41:23;;;;;;;20.20;15.30;;;;;;;;;;5048203;28;20056;-63
2022/03/11 11:43:52;;;;;;;21.47;14.90;;;;;;;;;;5047134;28;20106;-63
2022/03/11 11:46:19;;;;;;;19.23;14.47;;;;;;;;;;5048239;28;20087;-63
2022/03/11 11:48:46;;;;;;;21.27;15.07;;;;;;;;;;5048172;28;20099;-63
2022/03/11 11:51:22;;;;;;;21.17;14.30;;;;;;;;;;5048434;28;20044;-63
2022/03/11 11:53:51;;;;;;;19.00;14.77;;;;;;;;;;5048452;28;20292;-63
2022/03/11 11:56:36;;;;;;;21.73;15.17;;;;;;;;;;5047558;28;20036;-64
2022/03/11 11:59:04;;;;;;;20.17;15.10;;;;;;;;;;5048156;28;20049;-63
2022/03/11 12:01:39;;;;;;;21.33;15.60;;;;;;;;;;5048527;28;20045;-63
2022/03/11 12:04:21;;;;;;;21.73;15.47;;;;;;;;;;5048182;28;20049;-63
2022/03/11 12:06:56;;;;;;;23.10;16.03;;;;;;;;;;5048342;28;20503;-63
2022/03/11 12:09:40;;;;;;;19.63;14.20;;;;;;;;;;5047039;28;20045;-63
2022/03/11 12:12:07;;;;;;;21.23;15.67;;;;;;;;;;5047221;28;20048;-64
2022/03/11 12:14:53;;;;;;;21.63;14.47;;;;;;;;;;5048468;28;20106;-63
2022/03/11 12:17:35;;;;;;;21.50;15.10;;;;;;;;;;5047995;28;20133;-63
2022/03/11 12:20:21;;;;;;;23.53;15.80;;;;;;;;;;5048039;28;20041;-63
2022/03/11 12:23:03;;;;;;;21.97;15.87;;;;;;;;;;5048287;28;20049;-63
2022/03/11 12:25:34;;;;;;;24.20;16.07;;;;;;;;;;5048153;28;20483;-63
2022/03/11 12:28:01;;;;;;;21.03;14.70;;;;;;;;;;5048223;28;20041;-63
2022/03/11 12:30:33;;;;;;;22.67;15.37;;;;;;;;;;5048063;28;20451;-63
2022/03/11 12:33:00;;;;;;;21.63;15.47;;;;;;;;;;5047760;28;20135;-63
2022/03/11 12:35:27;;;;;;;23.40;14.47;;;;;;;;;;5047939;28;20056;-64
2022/03/11 12:37:53;;;;;;;21.63;14.37;;;;;;;;;;5048206;28;20496;-64
2022/03/11 12:40:25;;;;;;;21.73;15.33;;;;;;;;;;5047698;28;20045;-63
2022/03/11 12:42:57;;;;;;;19.60;14.85;;;;;;;;;;5047870;28;20045;-63
2022/03/11 12:45:34;;;;;;;19.60;14.63;;;;;;;;;;5027623;28;20084;-64
2022/03/11 12:48:00;;;;;;;19.53;15.40;;;;;;;;;;5045150;28;20045;-64
2022/03/11 12:50:26;;;;;;;19.97;15.13;;;;;;;;;;5045899;28;20041;-63
2022/03/11 12:52:55;;;;;;;19.63;15.03;;;;;;;;;;5047480;28;20033;-63
2022/03/11 12:55:21;;;;;;;19.93;15.63;;;;;;;;;;5048029;28;20053;-64
2022/03/11 12:57:51;;;;;;;21.60;15.50;;;;;;;;;;5048091;28;20151;-63
2022/03/11 13:00:19;;;;;;;19.03;14.83;;;;;;;;;;5047273;28;20049;-64
2022/03/11 13:02:45;;;;;;;17.50;14.43;;;;;;;;;;5028263;28;20037;-64
2022/03/11 13:05:18;;;;;;;20.30;13.70;;;;;;;;;;5046514;28;20131;-63
2022/03/11 13:07:44;;;;;;;18.60;14.38;;;;;;;;;;5045641;28;20510;-63
2022/03/11 13:10:14;;;;;;;20.47;15.37;;;;;;;;;;5047600;28;20060;-64
2022/03/11 13:12:40;;;;;;;20.77;15.10;;;;;;;;;;5048103;28;21198;-63
2022/03/11 13:15:10;;;;;;;20.70;15.77;;;;;;;;;;5047506;28;20075;-63
2022/03/11 13:17:40;;;;;;;17.60;13.30;;;;;;;;;;5047729;28;20049;-64
2022/03/11 13:20:07;;;;;;;17.90;14.43;;;;;;;;;;5047989;28;20049;-63
2022/03/11 13:22:33;;;;;;;18.00;14.03;;;;;;;;;;5048383;28;20407;-64
2022/03/11 13:25:03;;;;;;;19.70;14.30;;;;;;;;;;5051268;28;20087;-63
2022/03/11 13:27:36;;;;;;;17.30;14.17;;;;;;;;;;5050440;28;20586;-63
2022/03/11 13:30:06;;;;;;;18.80;14.20;;;;;;;;;;5051090;28;20127;-63
2022/03/11 13:32:32;;;;;;;19.10;14.60;;;;;;;;;;5049543;28;20064;-63
2022/03/11 13:34:58;;;;;;;18.70;13.33;;;;;;;;;;5051105;28;20427;-63
2022/03/11 13:37:24;;;;;;;17.10;13.40;;;;;;;;;;5050710;28;20135;-64
2022/03/11 13:40:10;;;;;;;17.50;13.73;;;;;;;;;;5050104;28;20053;-64
2022/03/11 13:42:36;;;;;;;18.90;13.70;;;;;;;;;;5041467;28;20110;-64
2022/03/11 13:45:08;;;;;;;20.03;13.33;;;;;;;;;;5050847;28;20049;-64
2022/03/11 13:47:34;;;;;;;17.17;13.40;;;;;;;;;;5051087;28;20048;-64
2022/03/11 13:50:07;;;;;;;18.13;12.57;;;;;;;;;;5050613;28;20272;-64
2022/03/11 13:52:33;;;;;;;;;;;;;;;;;;5051258;28;20041;-64
2022/03/11 13:55:06;;;;;;;19.20;13.47;;;;;;;;;;5050123;28;19927;-64
2022/03/11 13:57:35;;;;;;;17.90;13.00;;;;;;;;;;5049774;28;20041;-63
2022/03/11 14:00:15;;;;;;;17.57;12.93;;;;;;;;;;5051188;28;20064;-64
2022/03/11 14:02:41;;;;;;;16.37;13.03;;;;;;;;;;5050367;28;20072;-64
2022/03/11 14:05:19;;;;;;;19.77;13.07;;;;;;;;;;5050329;28;20045;-64
2022/03/11 14:07:47;;;;;;;18.57;12.47;;;;;;;;;;5050399;28;20525;-64
2022/03/11 14:10:17;;;;;;;16.33;11.93;;;;;;;;;;5050034;28;20045;-63
2022/03/11 14:12:43;;;;;;;16.40;12.33;;;;;;;;;;5050352;28;20049;-64
2022/03/11 14:15:10;;;;;;;20.40;13.53;;;;;;;;;;5049817;28;20509;-63
2022/03/11 14:17:36;;;;;;;17.47;12.80;;;;;;;;;;5049708;28;20110;-64
2022/03/11 14:20:04;;;;;;;17.90;12.80;;;;;;;;;;5050256;28;20326;-63